Terminal Aerodrome Forecast
Issued by NWS

Home | Current Version | Previous Version | Text Only | Print | Product List | Glossary On
Versions: 1 2 3 4 5 6 7 8 9 10 11 12 13 14 15 16 17 18 19 20 21 22 23
000
FTUS43 KIND 240602 AAA
TAFHUF
TAF AMD
KHUF 240602Z 2406/2506 00000KT 4SM BR SCT250
      TEMPO 2408/2411 1 1/2SM BR
     FM241400 20007KT P6SM BKN250=

USA.gov is the U.S. government's official web portal to all federal, state and local government web resources and services.